Ottawa Hills, Ohio
Current Conditions -  °F | °C
As of 12:15 PM on Thursday 27 Nov 2014 (Local Time) from KDUH Reporting Station
Overcast Overcast  
Wind Chill: 25°   Ceiling: 3400
Heat Index: 34°   Visibility: 7mi
Dew Point: 27°   Wind: 12mph
Humidity: 75%   Direction: 280°W
Pressure: 30.18"   Gusts: 16mph
Location:  41.6504°N, 83.6702°W
Report Text: KDUH 271715Z AUTO 28010G14KT 7SM SCT026 OVC034 01/M03 A3018 RMK AO2
Loading
Personal Weather Stations






























Interactive Weather Map New forecast layout! Learn more

10-Day Weather Forecast

Advertisements
Track Severe Weather on mobile